Terminal Aerodrome Forecast
Issued by NWS

Home | Current Version | Previous Version | Graphics & Text | Print | Product List | Glossary On
Versions: 1 2 3 4 5 6 7 8 9 10 11 12 13 14 15 16 17 18 19 20 21
000
FTUS43 KGRB 221012 AAA
TAFCWA
TAF AMD
KCWA 221012Z 2210/2306 11004KT 6SM -SHRA OVC005
     FM221400 08005KT 6SM BR VCSH OVC015
     FM222000 08004KT 6SM -SHRA VCTS OVC020CB
      AMD LTD TO CLD VIS AND WIND TIL 221100=

USA.gov is the U.S. government's official web portal to all federal, state and local government web resources and services.